Time;durP1;ratioP1;P1;durP2;ratioP2;P2;SDS_P1;SDS_P2;PMS_P1;PMS_P2;Temp;Humidity;BMP_temperature;BMP_pressure;BME280_temperature;BME280_humidity;BME280_pressure;Samples;Min_cycle;Max_cycle;Signal;HPM_P1;HPM_P2
2022/01/24 00:00:58;;;;;;;33.38;14.13;;;;;;;-4.77;84.28;97632.53;5062150;28;20847;-61
2022/01/24 00:03:25;;;;;;;50.05;15.50;;;;;;;-4.59;85.11;97681.81;5063611;28;20053;-62
2022/01/24 00:05:52;;;;;;;46.88;17.50;;;;;;;-5.26;84.43;97571.63;5063196;28;20069;-62
2022/01/24 00:08:20;;;;;;;27.58;9.77;;;;;;;-4.48;84.15;97697.88;5063520;28;20060;-61
2022/01/24 00:10:48;;;;;;;46.47;14.32;;;;;;;-4.34;83.98;97701.75;5063329;28;20060;-63
2022/01/24 00:26:42;;;;;;;21.42;8.93;;;;;;;-4.06;81.86;97708.72;5063806;28;20044;-59
2022/01/24 00:26:57;;;;;;;34.03;9.93;;;;;;;-3.98;82.02;97709.03;5083149;28;20048;-61
2022/01/24 00:29:25;;;;;;;15.88;5.70;;;;;;;-4.36;82.90;97701.19;5083332;28;20097;-62
2022/01/24 00:31:54;;;;;;;43.15;13.25;;;;;;;-4.01;82.72;97703.31;5082975;28;20051;-64
2022/01/24 00:34:23;;;;;;;120.72;35.25;;;;;;;-3.96;81.49;97711.47;5083489;28;20048;-63
2022/01/24 00:36:51;;;;;;;39.67;13.75;;;;;;;-4.05;81.06;97702.22;5081707;28;20048;-62
2022/01/24 00:39:20;;;;;;;30.85;10.55;;;;;;;-4.55;81.16;97653.22;5083058;28;20059;-62
2022/01/24 00:46:50;;;;;;;26.52;8.32;;;;;;;-4.09;83.19;97711.91;5083143;28;20052;-64
2022/01/24 00:54:44;;;;;;;32.67;12.52;;;;;;;-4.27;81.36;97698.84;5086866;28;20048;-63
2022/01/24 00:57:11;;;;;;;31.08;11.07;;;;;;;-4.47;81.69;97666.25;5086530;28;20063;-62
2022/01/24 00:59:38;;;;;;;26.13;10.02;;;;;;;-3.99;81.47;97712.00;5087021;28;20060;-61
2022/01/24 01:02:06;;;;;;;19.17;8.25;;;;;;;-3.91;79.17;97708.78;5086477;28;20044;-61
2022/01/24 01:04:57;;;;;;;22.60;7.07;;;;;;;-4.13;78.47;97672.97;5085071;28;20052;-62
2022/01/24 01:07:32;;;;;;;17.88;6.55;;;;;;;-4.26;78.79;97641.78;5086630;28;20052;-61
2022/01/24 01:18:16;;;;;;;51.30;14.23;;;;;;;-4.10;80.32;97710.28;5086485;28;20052;-62
2022/01/24 01:23:18;;;;;;;13.57;4.95;;;;;;;-4.25;79.83;97702.09;5074428;28;20490;-62
2022/01/24 01:25:46;;;;;;;10.40;4.20;;;;;;;-4.29;78.03;97700.97;5065357;28;20075;-62
2022/01/24 01:28:13;;;;;;;9.60;4.10;;;;;;;-4.43;79.04;97683.56;5066054;28;20049;-60
2022/01/24 01:30:42;;;;;;;8.48;3.13;;;;;;;-4.15;79.25;97696.72;5065950;28;20045;-62
2022/01/24 01:33:21;;;;;;;5.45;2.63;;;;;;;-4.34;80.13;97692.81;5065807;28;20056;-60
2022/01/24 01:39:05;;;;;;;8.75;3.15;;;;;;;-5.75;80.47;97470.28;5065864;28;20052;-60
2022/01/24 01:53:22;;;;;;;10.55;2.47;;;;;;;-4.23;74.32;97691.81;5065607;28;20052;-60
2022/01/24 01:55:48;;;;;;;5.35;2.10;;;;;;;-4.36;74.89;97705.81;5065258;28;20044;-64
2022/01/24 01:58:20;;;;;;;6.07;2.28;;;;;;;-4.32;73.94;97709.59;5065120;28;20055;-62
2022/01/24 02:00:54;;;;;;;9.93;2.70;;;;;;;-4.32;74.17;97712.31;5065026;28;20049;-62
2022/01/24 02:03:22;;;;;;;3.08;2.08;;;;;;;-4.80;73.86;97672.72;5064146;28;20087;-61
2022/01/24 02:05:50;;;;;;;4.32;1.90;;;;;;;-4.55;74.47;97674.84;5065493;28;20052;-61
2022/01/24 02:08:18;;;;;;;5.70;2.20;;;;;;;-4.34;74.39;97731.50;5065486;28;20044;-61
2022/01/24 02:10:45;;;;;;;6.97;2.47;;;;;;;-5.18;74.94;97590.06;5065026;28;20048;-63
2022/01/24 02:13:12;;;;;;;6.65;2.65;;;;;;;-4.87;73.89;97627.03;5063226;28;20060;-60
2022/01/24 02:15:53;;;;;;;5.88;1.70;;;;;;;-4.80;72.99;97651.94;5064312;28;20450;-60
2022/01/24 02:18:43;;;;;;;5.75;2.40;;;;;;;-4.28;74.74;97729.66;5064683;28;20052;-61
2022/01/24 02:21:42;;;;;;;9.38;2.72;;;;;;;-4.21;73.97;97731.06;5063666;28;20053;-63
2022/01/24 02:24:10;;;;;;;10.70;3.03;;;;;;;-4.29;74.45;97706.38;5084161;28;20449;-63
2022/01/24 02:26:37;;;;;;;9.02;3.10;;;;;;;-4.11;74.98;97719.50;5084340;28;20048;-63
2022/01/24 02:29:26;;;;;;;9.52;2.70;;;;;;;-4.94;74.47;97596.75;5084424;28;20048;-61
2022/01/24 02:31:52;;;;;;;8.35;3.75;;;;;;;-4.36;73.54;97693.06;5084527;28;20058;-60
2022/01/24 02:34:30;;;;;;;9.30;3.35;;;;;;;-4.13;73.79;97743.28;5083434;28;20060;-63
2022/01/24 02:37:01;;;;;;;12.52;3.72;;;;;;;-3.95;74.29;97746.38;5084509;28;20056;-62
2022/01/24 02:50:36;;;;;;;10.50;3.40;;;;;;;-3.79;71.30;97763.50;5084214;28;20043;-63
2022/01/24 02:53:03;;;;;;;7.43;2.90;;;;;;;-3.77;70.19;97764.06;5084805;28;20059;-63
2022/01/24 02:55:30;;;;;;;8.32;3.22;;;;;;;-3.86;70.58;97793.53;5084354;28;20060;-62
2022/01/24 02:57:57;;;;;;;9.05;2.92;;;;;;;-5.30;72.26;97565.13;5084346;28;20159;-61
2022/01/24 03:00:24;;;;;;;5.70;1.50;;;;;;;-3.97;72.07;97774.78;5084178;28;20051;-61
2022/01/24 03:02:50;;;;;;;8.70;3.28;;;;;;;-4.90;72.62;97627.53;5084873;28;20055;-63
2022/01/24 03:05:17;;;;;;;5.57;2.17;;;;;;;-4.11;72.78;97765.47;5084504;28;20044;-61
2022/01/24 03:07:44;;;;;;;8.50;3.20;;;;;;;-4.50;72.32;97707.31;5084203;28;20048;-63
2022/01/24 03:10:24;;;;;;;9.23;3.88;;;;;;;-4.35;71.50;97719.06;5083526;28;20493;-62
2022/01/24 03:13:32;;;;;;;6.78;2.40;;;;;;;-4.21;68.91;97762.69;5083863;28;20063;-63
2022/01/24 03:15:50;;;;;;;7.88;2.63;;;;;;;-5.23;68.27;97594.59;4380343;28;20004028;-64
2022/01/24 03:18:18;;;;;;;3.25;1.58;;;;;;;-4.21;69.49;97776.22;5082125;28;20060;-61
2022/01/24 03:20:46;;;;;;;2.55;1.33;;;;;;;-4.39;67.24;97744.97;5083747;28;20060;-61
2022/01/24 03:23:15;;;;;;;9.05;2.75;;;;;;;-4.20;67.83;97764.31;5079079;28;20155;-60
2022/01/24 03:25:42;;;;;;;3.70;1.60;;;;;;;-4.14;65.79;97769.50;5062252;28;20079;-61
2022/01/24 03:28:10;;;;;;;9.88;2.47;;;;;;;-4.09;67.62;97771.41;5063908;28;20075;-63
2022/01/24 03:30:38;;;;;;;7.35;2.35;;;;;;;-4.30;66.34;97748.81;5063848;28;20142;-63
2022/01/24 03:33:06;;;;;;;9.07;3.15;;;;;;;-4.07;67.00;97778.22;5062185;28;20060;-62
2022/01/24 03:35:33;;;;;;;6.55;2.38;;;;;;;-4.13;66.30;97775.72;5062151;28;20055;-63
2022/01/24 03:38:02;;;;;;;6.72;2.28;;;;;;;-4.01;65.06;97779.06;5062512;28;20154;-62
2022/01/24 03:40:29;;;;;;;6.70;2.67;;;;;;;-4.17;65.15;97753.78;5063770;28;20056;-62
2022/01/24 03:42:56;;;;;;;7.28;2.38;;;;;;;-4.04;64.60;97791.22;5062195;28;20056;-62
2022/01/24 03:45:39;;;;;;;6.18;1.77;;;;;;;-4.66;63.26;97707.19;5063381;28;20526;-62
2022/01/24 03:50:52;;;;;;;7.35;2.65;;;;;;;-4.02;66.29;97799.06;5063243;28;20479;-61
2022/01/24 03:53:19;;;;;;;9.75;3.70;;;;;;;-4.13;68.18;97779.25;5062238;28;20062;-63
2022/01/24 03:55:45;;;;;;;13.57;4.70;;;;;;;-4.16;70.07;97776.25;5063876;28;20078;-61
2022/01/24 03:58:12;;;;;;;13.13;4.65;;;;;;;-4.09;71.27;97787.66;5063566;28;20055;-61
2022/01/24 04:00:39;;;;;;;11.75;4.85;;;;;;;-4.44;71.46;97750.31;5063602;28;20059;-64
2022/01/24 04:03:06;;;;;;;10.15;4.07;;;;;;;-3.93;72.06;97811.03;5063735;28;20053;-62
2022/01/24 04:05:33;;;;;;;12.98;3.65;;;;;;;-4.17;72.57;97817.91;5063358;28;20052;-61
2022/01/24 04:07:59;;;;;;;9.73;3.45;;;;;;;-4.19;72.92;97823.56;5063739;28;20055;-63
2022/01/24 04:10:26;;;;;;;9.55;3.55;;;;;;;-4.27;73.41;97798.88;5062157;28;20134;-64
2022/01/24 04:12:53;;;;;;;12.05;4.45;;;;;;;-4.14;73.21;97834.41;5063555;28;20064;-64
2022/01/24 04:23:43;;;;;;;20.50;9.73;;;;;;;-4.59;72.70;97752.09;5067601;28;20063;-61
2022/01/24 04:26:09;;;;;;;15.50;6.40;;;;;;;-4.40;72.22;97780.38;5067656;28;20067;-62
2022/01/24 04:28:36;;;;;;;18.70;6.63;;;;;;;-4.22;73.19;97817.84;5067766;28;20063;-63
2022/01/24 04:31:03;;;;;;;53.88;16.48;;;;;;;-4.53;72.92;97753.75;5067091;28;20060;-63
2022/01/24 04:33:30;;;;;;;42.78;13.48;;;;;;;-4.04;73.57;97863.44;5067235;28;20056;-62
2022/01/24 04:35:57;;;;;;;26.67;9.68;;;;;;;-4.22;73.29;97839.50;5065295;28;20052;-62
2022/01/24 04:38:24;;;;;;;43.13;12.98;;;;;;;-4.00;73.70;97859.94;5066752;28;20060;-61
2022/01/24 04:40:56;;;;;;;54.28;15.32;;;;;;;-4.25;73.57;97823.78;5067019;28;20464;-64
2022/01/24 04:46:16;;;;;;;29.33;10.02;;;;;;;-3.77;73.83;97891.25;5066765;28;20410;-61
2022/01/24 04:54:39;;;;;;;104.72;28.65;;;;;;;-3.68;73.35;97895.13;5066301;28;20062;-61
2022/01/24 04:57:03;;;;;;;13.10;4.95;;;;;;;-3.76;72.65;97895.63;5065954;28;20554;-61
2022/01/24 04:59:30;;;;;;;9.35;4.00;;;;;;;-4.00;74.21;97895.13;5064889;28;20056;-61
2022/01/24 05:01:57;;;;;;;6.43;2.05;;;;;;;-4.50;73.41;97893.81;5064620;28;20632;-64
2022/01/24 05:04:24;;;;;;;13.52;4.82;;;;;;;-4.32;74.51;97913.22;5066541;28;20080;-63
2022/01/24 05:06:51;;;;;;;15.15;4.18;;;;;;;-4.45;74.81;97921.72;5064523;28;20049;-62
2022/01/24 05:09:19;;;;;;;13.50;4.60;;;;;;;-4.25;74.50;97918.41;5064769;28;20050;-62
2022/01/24 05:11:55;;;;;;;13.57;5.50;;;;;;;-4.24;74.70;97920.88;5066444;28;20427;-61
2022/01/24 05:25:23;;;;;;;12.80;5.35;;;;;;;-4.55;74.66;97918.09;5065864;28;20048;-61
2022/01/24 05:27:50;;;;;;;16.35;6.10;;;;;;;-4.32;73.50;97951.06;5065921;28;20273;-60
2022/01/24 05:30:16;;;;;;;14.95;5.78;;;;;;;-4.63;73.98;97892.31;5066245;28;20416;-61
2022/01/24 05:32:44;;;;;;;26.77;12.63;;;;;;;-4.15;74.09;97956.38;5065477;28;20806;-61
2022/01/24 05:35:11;;;;;;;33.13;13.43;;;;;;;-4.10;75.11;97948.31;5065664;28;20044;-62
2022/01/24 05:37:39;;;;;;;28.00;11.70;;;;;;;-4.48;74.44;97868.16;5080999;28;20348;-62
2022/01/24 05:40:06;;;;;;;28.48;10.40;;;;;;;-3.91;72.93;97957.72;5065871;28;20111;-61
2022/01/24 05:42:33;;;;;;;56.55;19.42;;;;;;;-3.97;73.16;97932.50;5065758;28;20053;-63
2022/01/24 05:45:00;;;;;;;51.28;17.60;;;;;;;-3.88;72.95;97951.78;5064322;28;20045;-63
2022/01/24 05:47:26;;;;;;;39.22;14.15;;;;;;;-3.86;72.73;97961.28;5065360;28;20055;-61
2022/01/24 05:49:53;;;;;;;35.80;13.52;;;;;;;-3.88;72.26;97962.59;5065510;28;20048;-63
2022/01/24 05:52:20;;;;;;;24.83;8.35;;;;;;;-4.74;71.53;97839.22;5065756;28;20059;-62
2022/01/24 05:54:46;;;;;;;20.38;7.03;;;;;;;-4.01;70.91;97965.72;5065587;28;20087;-61
2022/01/24 05:57:13;;;;;;;19.98;7.22;;;;;;;-4.40;72.01;97920.94;5064034;28;20056;-61
2022/01/24 05:59:40;;;;;;;16.85;6.80;;;;;;;-3.99;72.25;97974.41;5065704;28;20159;-61
2022/01/24 06:02:07;;;;;;;21.55;8.20;;;;;;;-4.02;71.64;97983.03;5065138;28;20048;-61
2022/01/24 06:04:34;;;;;;;42.05;15.35;;;;;;;-4.58;70.84;97902.38;5065226;28;20064;-64
2022/01/24 06:07:01;;;;;;;46.90;12.57;;;;;;;-4.63;71.24;97883.41;5063171;28;20056;-61
2022/01/24 06:09:27;;;;;;;21.77;8.30;;;;;;;-4.43;71.88;97916.88;5065085;28;20052;-61
2022/01/24 06:11:54;;;;;;;24.67;8.50;;;;;;;-3.86;69.43;97990.22;5063612;28;20070;-63
2022/01/24 06:14:21;;;;;;;37.50;9.43;;;;;;;-4.20;68.63;97937.38;5065057;28;20558;-62
2022/01/24 06:16:48;;;;;;;48.50;11.65;;;;;;;-4.34;68.79;97898.28;5064930;28;20059;-63
2022/01/24 06:19:14;;;;;;;31.95;10.32;;;;;;;-3.74;68.71;97974.63;5064960;28;20529;-61
2022/01/24 06:21:44;;;;;;;22.27;7.72;;;;;;;-3.47;68.57;97994.38;5064919;28;20052;-63
2022/01/24 06:24:12;;;;;;;18.20;6.43;;;;;;;-3.53;67.64;97976.47;5077778;28;20092;-62
2022/01/24 06:26:58;;;;;;;18.83;7.38;;;;;;;-3.62;66.11;97956.38;5064312;28;20059;-62
2022/01/24 06:29:25;;;;;;;37.80;12.05;;;;;;;-3.06;65.33;98015.31;5064673;28;20575;-63
2022/01/24 06:31:52;;;;;;;33.85;11.18;;;;;;;-3.11;64.32;97990.88;5064678;28;20052;-62
2022/01/24 06:34:20;;;;;;;32.58;11.00;;;;;;;-3.26;63.27;97955.56;5063239;28;20044;-60
2022/01/24 06:36:47;;;;;;;31.52;9.90;;;;;;;-2.86;63.76;98028.19;5064163;28;20063;-62
2022/01/24 06:39:18;;;;;;;42.55;14.93;;;;;;;-2.91;64.58;98022.72;5064395;28;20052;-61
2022/01/24 06:41:52;;;;;;;14.50;5.53;;;;;;;-3.03;63.43;98003.94;5064601;28;20541;-60
2022/01/24 06:44:18;;;;;;;13.85;5.18;;;;;;;-3.50;67.47;97948.88;5063457;28;20511;-61
2022/01/24 06:46:45;;;;;;;16.88;6.57;;;;;;;-2.90;65.86;98036.03;5063904;28;20071;-60
2022/01/24 06:49:13;;;;;;;17.00;7.13;;;;;;;-2.77;65.59;98024.72;5064501;28;20543;-61
2022/01/24 06:51:40;;;;;;;15.90;6.07;;;;;;;-2.56;63.99;98026.47;5063081;28;20143;-63
2022/01/24 06:54:07;;;;;;;13.88;5.10;;;;;;;-2.44;63.51;98027.09;5064187;28;20048;-63
2022/01/24 06:56:33;;;;;;;20.02;8.32;;;;;;;-2.24;62.17;98013.63;5062212;28;20501;-60
2022/01/24 06:59:00;;;;;;;33.78;11.20;;;;;;;-2.21;61.25;98025.81;5062905;28;20071;-56
2022/01/24 07:01:27;;;;;;;28.40;10.00;;;;;;;-3.20;60.36;97933.66;5069047;28;20054;-67
2022/01/24 07:03:54;;;;;;;20.65;9.20;;;;;;;-2.59;60.72;97955.69;5068297;28;20048;-57
2022/01/24 07:06:21;;;;;;;17.02;8.05;;;;;;;-1.99;60.60;98054.41;5077447;28;20058;-58
2022/01/24 07:08:48;;;;;;;17.38;7.45;;;;;;;-3.22;59.75;97848.31;5082058;28;20058;-61
2022/01/24 07:11:15;;;;;;;15.77;6.43;;;;;;;-2.52;60.35;98011.31;5083195;28;20441;-61
2022/01/24 07:13:42;;;;;;;25.92;11.00;;;;;;;-2.26;61.70;98042.91;5083330;28;20446;-58
2022/01/24 07:16:08;;;;;;;35.80;11.98;;;;;;;-2.21;62.96;98047.53;5079852;28;20154;-59
2022/01/24 07:21:05;;;;;;;23.92;9.20;;;;;;;-2.30;60.76;97982.13;5072897;28;20048;-69
2022/01/24 07:23:34;;;;;;;28.02;10.32;;;;;;;-2.10;60.79;98106.19;5068409;28;20098;-70
2022/01/24 07:26:01;;;;;;;25.63;10.30;;;;;;;-2.63;58.97;97901.19;5076465;28;20049;-69
2022/01/24 07:28:28;;;;;;;28.80;9.77;;;;;;;-4.68;58.00;97612.03;5073928;28;20082;-67
2022/01/24 07:30:55;;;;;;;26.88;10.52;;;;;;;-2.05;58.92;97990.34;5078265;28;20688;-57
2022/01/24 07:33:22;;;;;;;28.50;10.93;;;;;;;-1.91;58.14;97990.66;5064122;28;20048;-65
2022/01/24 07:35:49;;;;;;;28.48;9.88;;;;;;;-2.61;59.95;97892.78;5070505;28;20083;-58
2022/01/24 07:38:15;;;;;;;11.80;5.13;;;;;;;-1.11;54.64;98045.13;5066203;28;20097;-58
2022/01/24 07:40:43;;;;;;;14.93;5.32;;;;;;;-2.43;53.78;97922.94;5071468;28;20076;-60
2022/01/24 07:43:13;;;;;;;12.52;5.50;;;;;;;-1.18;54.69;98043.75;5064983;28;20054;-66
2022/01/24 07:45:44;;;;;;;15.05;5.35;;;;;;;-1.71;53.08;97882.88;5070279;28;20048;-57
2022/01/24 07:48:12;;;;;;;18.20;6.22;;;;;;;-0.42;52.66;98065.19;5066661;28;20427;-58
2022/01/24 07:50:41;;;;;;;26.45;9.02;;;;;;;-0.49;52.42;98007.50;5074798;28;20037;-61
2022/01/24 07:53:09;;;;;;;17.63;7.95;;;;;;;0.17;53.12;98068.00;5059402;28;20052;-61
2022/01/24 07:55:36;;;;;;;13.57;5.85;;;;;;;0.37;52.57;98067.91;5066445;28;20054;-68
2022/01/24 07:58:03;;;;;;;14.85;6.18;;;;;;;0.33;51.62;98045.06;5067612;28;20736;-66
2022/01/24 08:00:30;;;;;;;13.10;5.05;;;;;;;0.10;49.80;97969.44;5075972;28;20048;-61
2022/01/24 08:02:57;;;;;;;14.50;5.95;;;;;;;0.84;48.27;98079.09;5068232;28;20165;-59
2022/01/24 08:05:25;;;;;;;14.02;6.07;;;;;;;0.20;48.73;98085.69;5070299;28;20108;-61
2022/01/24 08:07:53;;;;;;;16.30;6.00;;;;;;;0.62;50.01;98065.03;5072111;28;20066;-61
2022/01/24 08:10:20;;;;;;;16.23;6.40;;;;;;;1.11;48.62;98063.06;5073087;28;20494;-61
2022/01/24 08:12:47;;;;;;;17.50;6.40;;;;;;;0.41;45.93;97981.78;5079621;28;20057;-63
2022/01/24 08:15:14;;;;;;;20.65;6.97;;;;;;;0.86;46.03;98081.53;5072543;28;20048;-62
2022/01/24 08:17:42;;;;;;;21.05;6.18;;;;;;;1.13;46.24;98101.81;5072007;28;20075;-58
2022/01/24 08:20:11;;;;;;;17.00;6.63;;;;;;;1.13;45.04;98085.44;5071388;28;20147;-70
2022/01/24 08:22:57;;;;;;;17.15;7.10;;;;;;;0.71;46.63;97997.91;5077194;28;20501;-59
2022/01/24 08:25:26;;;;;;;17.35;7.25;;;;;;;0.35;45.37;97943.97;5070590;28;20055;-59
2022/01/24 08:27:54;;;;;;;16.52;7.10;;;;;;;1.00;46.04;98099.72;5073501;28;20048;-60
2022/01/24 08:30:26;;;;;;;18.30;7.55;;;;;;;1.20;47.49;98076.94;5074512;28;20052;-62
2022/01/24 08:32:53;;;;;;;13.75;6.50;;;;;;;1.18;47.19;98096.31;5078565;28;20055;-56
2022/01/24 08:35:21;;;;;;;17.33;7.22;;;;;;;1.40;45.44;98044.81;5089820;28;20483;-61
2022/01/24 08:37:47;;;;;;;30.25;11.20;;;;;;;1.36;47.25;98064.75;5082837;28;20232;-65
2022/01/24 08:40:26;;;;;;;37.78;10.45;;;;;;;0.15;46.98;98107.50;5076141;28;20052;-61
2022/01/24 08:43:05;;;;;;;8.05;3.47;;;;;;;-0.80;48.05;98040.47;5084783;28;20048;-58
2022/01/24 08:45:45;;;;;;;15.45;6.18;;;;;;;0.65;46.34;98105.38;5069228;28;20489;-58
2022/01/24 08:48:14;;;;;;;15.85;6.55;;;;;;;0.83;46.46;98118.38;5075275;28;20048;-58
2022/01/24 08:50:41;;;;;;;13.90;5.40;;;;;;;1.45;44.99;98118.47;5067940;28;20137;-58
2022/01/24 08:53:10;;;;;;;20.55;7.90;;;;;;;0.79;45.89;97890.97;5087276;28;20859;-58
2022/01/24 08:55:38;;;;;;;14.55;6.20;;;;;;;1.84;45.08;98120.31;5071345;28;20048;-58
2022/01/24 08:58:06;;;;;;;21.02;7.20;;;;;;;1.26;45.20;98123.00;5068669;28;20227;-61
2022/01/24 09:00:35;;;;;;;47.97;11.65;;;;;;;1.60;46.26;98130.38;5070398;28;20146;-60
2022/01/24 09:03:02;;;;;;;37.75;10.23;;;;;;;-0.33;47.75;98084.47;5068302;28;20136;-60
2022/01/24 09:05:34;;;;;;;14.95;5.20;;;;;;;0.49;48.68;98136.53;5066562;28;20067;-61
2022/01/24 09:08:04;;;;;;;14.68;6.70;;;;;;;0.65;47.13;98091.75;5073009;28;20056;-64
2022/01/24 09:10:32;;;;;;;28.65;8.18;;;;;;;0.14;46.16;98133.94;5083295;28;20075;-58
2022/01/24 09:12:59;;;;;;;42.47;10.77;;;;;;;-0.27;46.60;98138.66;5072528;28;20070;-64
2022/01/24 09:15:26;;;;;;;40.63;9.80;;;;;;;-0.56;49.47;98139.50;5071344;28;20050;-64
2022/01/24 09:17:53;;;;;;;22.90;8.65;;;;;;;-0.58;52.26;98076.34;5072781;28;20140;-60
2022/01/24 09:20:20;;;;;;;12.02;4.85;;;;;;;-0.56;49.99;98098.69;5076122;28;20087;-62
2022/01/24 09:22:48;;;;;;;16.13;6.82;;;;;;;-0.23;49.46;98198.81;5080048;28;20052;-58
2022/01/24 09:25:17;;;;;;;15.32;5.07;;;;;;;0.04;47.56;98166.66;5070217;28;20060;-64
2022/01/24 09:27:46;;;;;;;21.65;7.75;;;;;;;-0.43;50.42;98046.41;5064083;28;20052;-58
2022/01/24 09:30:16;;;;;;;15.25;6.97;;;;;;;0.83;48.55;98132.00;5084272;28;20511;-63
2022/01/24 09:32:43;;;;;;;16.60;5.57;;;;;;;0.38;49.45;98143.09;5070858;28;20051;-62
2022/01/24 09:35:11;;;;;;;19.20;7.45;;;;;;;-0.02;50.68;98064.28;5063468;28;20083;-61
2022/01/24 09:37:39;;;;;;;11.13;4.88;;;;;;;-0.23;47.80;98144.34;5080662;28;20143;-72
2022/01/24 09:40:08;;;;;;;6.72;3.05;;;;;;;0.18;46.27;98145.91;5070643;28;20064;-61
2022/01/24 09:42:35;;;;;;;13.95;6.40;;;;;;;-1.63;48.16;97817.16;5077164;28;20119;-62
2022/01/24 09:45:03;;;;;;;16.73;6.10;;;;;;;0.28;45.33;98023.28;5085231;28;20058;-62
2022/01/24 09:47:34;;;;;;;12.35;5.00;;;;;;;-0.62;47.63;98004.56;5083709;28;20481;-68
2022/01/24 09:50:03;;;;;;;15.80;5.53;;;;;;;0.83;46.35;98131.19;5085589;28;20075;-69
2022/01/24 09:52:32;;;;;;;15.45;5.53;;;;;;;0.61;45.38;98019.00;5084699;28;20059;-66
2022/01/24 09:54:59;;;;;;;14.32;6.20;;;;;;;1.39;44.32;98135.97;5072074;28;20052;-63
2022/01/24 09:57:26;;;;;;;16.77;5.90;;;;;;;1.15;44.93;98124.19;5064795;28;20066;-63
2022/01/24 09:59:55;;;;;;;10.13;4.88;;;;;;;-0.10;46.75;97986.72;5063474;28;20053;-63
2022/01/24 10:02:24;;;;;;;11.95;4.47;;;;;;;0.16;46.46;98134.47;5062849;28;20492;-62
2022/01/24 10:05:10;;;;;;;15.32;6.30;;;;;;;0.26;47.85;98129.00;5064362;28;20147;-62
2022/01/24 10:07:39;;;;;;;14.02;5.90;;;;;;;0.15;48.13;98075.66;5062931;28;20049;-66
2022/01/24 10:10:07;;;;;;;13.27;5.15;;;;;;;0.20;47.36;98093.88;5063058;28;20052;-65
2022/01/24 10:18:11;;;;;;;13.68;5.53;;;;;;;-0.50;50.02;98127.50;5064207;28;20060;-63
2022/01/24 10:20:40;;;;;;;15.00;5.57;;;;;;;-0.76;52.03;98128.63;5063102;28;20525;-66
2022/01/24 10:23:17;;;;;;;15.32;4.97;;;;;;;-0.52;50.17;98099.78;5064092;28;20056;-63
2022/01/24 10:26:01;;;;;;;5.88;2.65;;;;;;;-0.98;49.96;98131.56;5064391;28;20789;-64
2022/01/24 10:28:43;;;;;;;13.85;6.05;;;;;;;-0.95;51.22;98082.09;5062733;28;20699;-61
2022/01/24 10:31:29;;;;;;;17.60;5.72;;;;;;;-0.98;51.64;98131.56;5062823;28;20499;-65
2022/01/24 10:34:05;;;;;;;19.92;6.57;;;;;;;-1.52;52.78;98131.16;5064602;28;20400;-61
2022/01/24 10:36:39;;;;;;;14.45;6.13;;;;;;;-0.81;52.60;98128.59;5064031;28;20052;-61
2022/01/24 10:39:14;;;;;;;;;;;;;;;-0.76;51.78;98125.91;5064442;28;20052;-62
2022/01/24 10:41:56;;;;;;;11.55;4.20;;;;;;;-0.88;50.61;98130.75;5063390;28;19924;-65
2022/01/24 10:44:31;;;;;;;14.70;5.93;;;;;;;-1.12;51.15;98114.16;5064140;28;20530;-64
2022/01/24 10:47:14;;;;;;;15.13;5.55;;;;;;;-0.30;49.84;98132.97;5061919;28;20058;-64
2022/01/24 10:49:42;;;;;;;13.13;5.50;;;;;;;-0.75;49.36;98054.06;5065576;28;20049;-65
2022/01/24 10:52:17;;;;;;;13.77;5.88;;;;;;;-0.56;48.57;98041.53;5083873;28;20058;-64
2022/01/24 10:54:44;;;;;;;9.70;4.15;;;;;;;-0.77;50.49;98127.78;5078913;28;20045;-63
2022/01/24 10:57:23;;;;;;;15.23;7.70;;;;;;;-1.03;52.24;98138.91;5063258;28;20082;-61
2022/01/24 10:59:59;;;;;;;7.20;2.67;;;;;;;-0.87;50.37;98116.91;5062186;28;20401;-62
2022/01/24 11:02:35;;;;;;;15.25;5.55;;;;;;;-1.29;50.84;98070.09;5063277;28;20048;-63
2022/01/24 11:05:12;;;;;;;12.90;4.93;;;;;;;-0.52;49.83;98121.53;5064095;28;20064;-61
2022/01/24 11:08:06;;;;;;;10.00;5.00;;;;;;;-1.07;50.90;98116.06;5062276;28;20474;-60
2022/01/24 11:10:42;;;;;;;5.68;2.97;;;;;;;-2.24;51.36;98043.47;5063237;28;20060;-62
2022/01/24 11:13:10;;;;;;;11.00;5.15;;;;;;;-1.58;52.51;98121.38;5062154;28;20515;-62
2022/01/24 11:15:41;;;;;;;12.13;4.88;;;;;;;-2.05;51.87;98088.06;5063598;28;20064;-62
2022/01/24 11:18:09;;;;;;;11.60;3.60;;;;;;;-1.39;50.30;98123.63;5062017;28;20052;-63
2022/01/24 11:20:40;;;;;;;9.27;4.60;;;;;;;-1.56;49.46;98097.47;5063712;28;20055;-61
2022/01/24 11:23:07;;;;;;;9.77;3.10;;;;;;;-1.89;50.66;98135.91;5061418;28;20195;-61
2022/01/24 11:25:38;;;;;;;2.95;1.33;;;;;;;-4.68;49.99;97663.38;5063298;28;20526;-62
2022/01/24 11:28:05;;;;;;;17.85;6.30;;;;;;;-1.43;51.48;98117.91;5061670;28;20052;-63
2022/01/24 11:30:42;;;;;;;10.70;5.35;;;;;;;-1.37;49.51;98116.00;5062523;28;20135;-62
2022/01/24 11:33:19;;;;;;;14.77;5.57;;;;;;;-1.17;50.71;98137.81;5063392;28;20048;-64
2022/01/24 11:35:55;;;;;;;10.95;5.25;;;;;;;-1.11;50.07;98114.97;5063439;28;20490;-61
2022/01/24 11:38:32;;;;;;;12.80;5.07;;;;;;;-1.38;51.92;98114.38;5066641;28;20411;-62
2022/01/24 11:41:04;;;;;;;8.93;3.97;;;;;;;-1.19;49.97;98129.09;5063048;28;20501;-64
2022/01/24 11:43:37;;;;;;;7.00;4.03;;;;;;;-1.85;49.97;98022.97;5060915;28;20051;-63
2022/01/24 11:46:27;;;;;;;13.32;6.38;;;;;;;-1.83;51.97;97966.53;5061961;28;20557;-64
2022/01/24 11:49:11;;;;;;;13.48;5.55;;;;;;;-0.87;51.84;98126.97;5066915;28;20086;-62
2022/01/24 11:51:40;;;;;;;13.35;5.53;;;;;;;-1.02;51.19;98105.19;5076320;28;20052;-62
2022/01/24 11:57:37;;;;;;;9.70;4.85;;;;;;;-1.48;51.40;98136.06;5063283;28;20523;-63
2022/01/24 12:00:08;;;;;;;12.88;5.20;;;;;;;-1.47;50.56;98143.16;5063041;28;20131;-67
2022/01/24 12:02:52;;;;;;;43.13;18.80;;;;;;;-1.48;51.87;98146.94;5062907;28;20143;-68
2022/01/24 12:05:21;;;;;;;7.97;4.38;;;;;;;-2.82;51.16;98003.00;5061390;28;20169;-67
2022/01/24 12:08:04;;;;;;;8.93;2.95;;;;;;;-1.89;50.87;98143.22;5061723;28;20144;-59
2022/01/24 12:10:51;;;;;;;7.30;3.33;;;;;;;-2.35;51.15;98103.34;5061318;28;20049;-60
2022/01/24 12:13:26;;;;;;;11.88;4.57;;;;;;;-2.06;52.94;98146.16;5062396;28;20118;-58
2022/01/24 12:15:54;;;;;;;16.23;6.10;;;;;;;-1.61;53.20;98143.63;5061084;28;20491;-60
2022/01/24 12:18:42;;;;;;;16.88;7.05;;;;;;;-1.66;53.39;98143.59;5067563;28;20049;-62
2022/01/24 12:21:26;;;;;;;14.55;5.70;;;;;;;-1.10;51.29;98154.66;5066103;28;20056;-66
2022/01/24 12:24:01;;;;;;;22.95;8.35;;;;;;;-0.45;52.99;98124.78;5064989;28;20088;-64
2022/01/24 12:26:46;;;;;;;8.63;4.20;;;;;;;-1.60;50.19;98088.22;5070515;28;20048;-70
2022/01/24 12:29:25;;;;;;;10.27;4.38;;;;;;;-1.71;51.38;98138.16;5071804;28;20137;-61
2022/01/24 12:31:56;;;;;;;9.50;3.70;;;;;;;-2.32;52.74;98087.38;5073251;28;20056;-59
2022/01/24 12:34:40;;;;;;;16.73;7.00;;;;;;;-1.76;54.25;98140.03;5080648;28;20056;-59
2022/01/24 12:37:10;;;;;;;17.33;6.65;;;;;;;-1.77;53.39;98150.09;5068104;28;20523;-62
2022/01/24 12:39:50;;;;;;;11.40;5.07;;;;;;;-1.71;53.01;98138.16;5065256;28;20052;-61
2022/01/24 12:48:29;;;;;;;6.88;2.75;;;;;;;-2.52;54.78;98159.66;5070606;28;20052;-66
2022/01/24 12:50:56;;;;;;;7.43;3.10;;;;;;;-3.82;55.64;97945.34;5077432;28;20044;-60
2022/01/24 12:53:23;;;;;;;11.82;4.07;;;;;;;-2.71;55.57;98140.25;5069734;28;20056;-64
2022/01/24 12:56:02;;;;;;;7.60;3.65;;;;;;;-2.34;54.53;98170.91;5072827;28;20132;-58
2022/01/24 12:58:49;;;;;;;14.68;4.75;;;;;;;-2.65;54.37;98174.47;5076131;28;20070;-61
2022/01/24 13:01:28;;;;;;;11.55;4.03;;;;;;;-2.82;53.27;98168.34;5082908;28;20139;-66
2022/01/24 13:03:58;;;;;;;13.48;5.88;;;;;;;-3.17;55.29;98168.00;5087041;28;20139;-65
2022/01/24 13:06:28;;;;;;;11.85;4.50;;;;;;;-4.52;55.41;97912.16;5076879;28;20052;-64
2022/01/24 13:09:25;;;;;;;12.82;5.20;;;;;;;-2.63;56.31;98172.31;5081962;28;20588;-65
2022/01/24 13:11:53;;;;;;;14.15;4.68;;;;;;;-2.49;54.38;98173.50;5070806;28;20055;-65
2022/01/24 13:14:33;;;;;;;8.45;3.35;;;;;;;-3.03;54.20;98104.19;5077466;28;20580;-62
2022/01/24 13:25:17;;;;;;;11.25;4.75;;;;;;;-2.56;57.42;98199.22;5067437;28;20106;-66
2022/01/24 13:27:53;;;;;;;7.07;2.63;;;;;;;-2.76;55.88;98188.19;5070076;28;20128;-58
2022/01/24 13:30:28;;;;;;;5.78;2.50;;;;;;;-2.83;54.48;98193.84;5070695;28;20067;-63
2022/01/24 13:32:59;;;;;;;7.10;3.47;;;;;;;-3.10;53.93;98095.47;5070176;28;20453;-63
2022/01/24 13:35:35;;;;;;;9.10;3.33;;;;;;;-2.87;53.85;98187.28;5082946;28;20044;-61
2022/01/24 13:38:26;;;;;;;5.18;2.85;;;;;;;-2.96;54.15;98199.66;5074211;28;20232;-63